createdAt,value
2017-07-03T00:00:02.714Z,11.6
2017-07-03T00:05:03.144Z,11.6
2017-07-03T00:10:02.449Z,11.6
2017-07-03T00:15:02.753Z,11.6
2017-07-03T00:20:03.096Z,11.6
2017-07-03T00:25:02.430Z,11.6
2017-07-03T00:30:02.707Z,11.6
2017-07-03T00:35:02.975Z,11.6
2017-07-03T00:40:02.740Z,11.6
2017-07-03T00:45:03.115Z,11.3
2017-07-03T00:50:02.513Z,11.3
2017-07-03T00:55:02.827Z,11.3
2017-07-03T01:00:03.103Z,11.1
2017-07-03T01:05:02.434Z,11.1
2017-07-03T01:10:02.924Z,11.1
2017-07-03T01:15:03.288Z,11.0
2017-07-03T01:20:02.538Z,11.1
2017-07-03T01:25:02.796Z,11.1
2017-07-03T01:30:03.129Z,11.0
2017-07-03T01:35:02.458Z,10.8
2017-07-03T01:40:02.816Z,10.8
2017-07-03T01:45:02.285Z,10.8
2017-07-03T01:50:02.746Z,10.8
2017-07-03T01:55:03.104Z,10.8
2017-07-03T02:00:02.524Z,10.6
2017-07-03T02:05:02.834Z,10.6
2017-07-03T02:10:03.260Z,10.6
2017-07-03T02:15:02.578Z,10.6
2017-07-03T02:20:02.836Z,10.6
2017-07-03T02:25:02.311Z,10.5
2017-07-03T02:30:02.782Z,10.6
2017-07-03T02:35:03.169Z,10.5
2017-07-03T02:40:02.544Z,10.6
2017-07-03T02:45:02.846Z,10.3
2017-07-03T02:50:03.215Z,10.5
2017-07-03T02:55:02.684Z,10.3
2017-07-03T03:00:03.085Z,10.5
2017-07-03T03:05:02.514Z,10.5
2017-07-03T03:10:03.010Z,10.3
2017-07-03T03:15:02.397Z,10.5
2017-07-03T03:20:02.756Z,10.3
2017-07-03T03:25:03.028Z,10.3
2017-07-03T03:30:02.404Z,10.3
2017-07-03T03:35:02.757Z,10.3
2017-07-03T03:40:03.269Z,10.3
2017-07-03T03:45:02.604Z,10.3
2017-07-03T03:50:02.973Z,10.3
2017-07-03T03:55:02.455Z,10.3
2017-07-03T04:00:03.020Z,10.5
2017-07-03T04:05:02.498Z,10.6
2017-07-03T04:10:02.905Z,10.6
2017-07-03T04:15:02.343Z,10.8
2017-07-03T04:20:02.744Z,11.0
2017-07-03T04:25:03.177Z,11.0
2017-07-03T04:30:02.627Z,11.0
2017-07-03T04:35:03.019Z,11.0
2017-07-03T04:40:02.320Z,11.1
2017-07-03T04:45:02.672Z,11.3
2017-07-03T04:50:03.139Z,11.3
2017-07-03T04:55:02.496Z,11.3
2017-07-03T05:00:02.866Z,11.3
2017-07-03T05:05:03.166Z,11.6
2017-07-03T05:10:02.491Z,11.8
2017-07-03T05:15:03.006Z,12.1
2017-07-03T05:20:02.451Z,12.1
2017-07-03T05:25:02.838Z,12.5
2017-07-03T05:30:03.203Z,12.6
2017-07-03T05:35:02.584Z,12.8
2017-07-03T05:40:03.017Z,12.8
2017-07-03T05:45:02.354Z,13.1
2017-07-03T05:50:02.785Z,13.1
2017-07-03T05:55:03.083Z,13.3
2017-07-03T06:00:02.343Z,13.5
2017-07-03T06:05:02.746Z,13.6
2017-07-03T06:10:03.223Z,13.6
2017-07-03T06:15:02.885Z,14.1
2017-07-03T06:20:02.291Z,14.1
2017-07-03T06:25:02.697Z,14.3
2017-07-03T06:30:03.005Z,14.1
2017-07-03T06:35:02.324Z,14.1
2017-07-03T06:40:02.730Z,14.3
2017-07-03T06:45:03.149Z,14.5
2017-07-03T06:50:02.593Z,15.0
2017-07-03T06:55:03.009Z,15.1
2017-07-03T07:00:02.499Z,15.8
2017-07-03T07:05:02.943Z,16.0
2017-07-03T07:10:02.296Z,15.8
2017-07-03T07:15:02.695Z,16.2
2017-07-03T07:20:03.206Z,16.3
2017-07-03T07:25:02.657Z,16.7
2017-07-03T07:30:03.153Z,16.7
2017-07-03T07:35:02.523Z,16.7
2017-07-03T07:40:02.990Z,17.2
2017-07-03T07:45:02.534Z,17.5
2017-07-03T07:50:02.855Z,18.2
2017-07-03T07:55:02.448Z,18.1
2017-07-03T08:00:02.906Z,17.7
2017-07-03T08:05:02.387Z,18.5
2017-07-03T08:10:02.952Z,18.2
2017-07-03T08:15:02.438Z,18.8
2017-07-03T08:20:02.827Z,19.0
2017-07-03T08:25:03.147Z,19.7
2017-07-03T08:30:02.584Z,19.2
2017-07-03T08:35:02.948Z,19.5
2017-07-03T08:40:02.624Z,20.2
2017-07-03T08:45:03.092Z,20.0
2017-07-03T08:50:02.626Z,20.1
2017-07-03T08:55:02.988Z,20.2
2017-07-03T09:00:02.274Z,20.2
2017-07-03T09:05:02.335Z,20.3
2017-07-03T09:10:02.876Z,20.7
2017-07-03T09:15:02.328Z,20.8
2017-07-03T09:20:02.676Z,20.8
2017-07-03T09:25:03.064Z,21.2
2017-07-03T09:30:02.358Z,21.5
2017-07-03T09:35:02.858Z,21.3
2017-07-03T09:40:02.303Z,21.5
2017-07-03T09:45:02.680Z,21.5
2017-07-03T09:50:03.036Z,21.2
2017-07-03T09:55:02.467Z,21.7
2017-07-03T10:00:02.928Z,21.8
2017-07-03T10:05:03.199Z,21.8
2017-07-03T10:10:02.484Z,21.8
2017-07-03T10:15:02.937Z,22.2
2017-07-03T10:20:02.261Z,22.7
2017-07-03T10:25:02.766Z,22.3
2017-07-03T10:30:02.633Z,22.1
2017-07-03T10:35:03.053Z,22.0
2017-07-03T10:40:02.887Z,23.0
2017-07-03T10:45:02.300Z,23.0
2017-07-03T10:50:02.905Z,23.1
2017-07-03T10:55:03.234Z,23.6
2017-07-03T11:00:02.732Z,22.7
2017-07-03T11:05:03.035Z,23.6
2017-07-03T11:10:02.662Z,23.6
2017-07-03T11:15:03.175Z,23.8
2017-07-03T11:20:02.889Z,23.7
2017-07-03T11:25:02.531Z,23.3
2017-07-03T11:30:03.250Z,24.2
2017-07-03T11:35:02.626Z,24.3
2017-07-03T11:40:03.136Z,23.3
2017-07-03T11:45:02.765Z,23.7
2017-07-03T11:50:02.407Z,23.2
2017-07-03T11:55:02.929Z,23.0
2017-07-03T12:00:02.552Z,23.1
2017-07-03T12:05:02.996Z,23.2
2017-07-03T12:10:02.587Z,22.7
2017-07-03T12:15:02.644Z,22.6
2017-07-03T12:20:02.973Z,24.0
2017-07-03T12:25:02.991Z,23.7
2017-07-03T12:30:02.375Z,23.2
2017-07-03T12:35:03.170Z,23.2
2017-07-03T12:40:02.766Z,23.7
2017-07-03T12:45:02.277Z,24.2
2017-07-03T12:50:02.379Z,23.6
2017-07-03T12:55:03.124Z,23.2
2017-07-03T13:00:03.220Z,23.2
2017-07-03T13:05:03.115Z,22.6
2017-07-03T13:10:03.244Z,22.6
2017-07-03T13:15:03.150Z,22.5
2017-07-03T13:20:02.876Z,22.1
2017-07-03T13:25:02.980Z,22.2
2017-07-03T13:30:02.762Z,22.2
2017-07-03T13:35:03.100Z,22.5
2017-07-03T13:40:02.632Z,22.7
2017-07-03T13:45:02.639Z,23.0
2017-07-03T13:50:02.411Z,22.7
2017-07-03T13:55:02.820Z,23.3
2017-07-03T14:00:02.843Z,23.7
2017-07-03T14:05:03.245Z,24.0
2017-07-03T14:10:02.393Z,23.6
2017-07-03T14:15:03.109Z,23.3
2017-07-03T14:20:02.675Z,23.2
2017-07-03T14:25:03.108Z,22.7
2017-07-03T14:30:03.209Z,22.7
2017-07-03T14:35:02.823Z,22.7
2017-07-03T14:40:03.009Z,23.1
2017-07-03T14:45:02.678Z,22.6
2017-07-03T14:50:03.135Z,22.7
2017-07-03T14:55:02.414Z,22.7
2017-07-03T15:00:02.520Z,22.5
2017-07-03T15:05:02.620Z,22.1
2017-07-03T15:10:03.232Z,22.0
2017-07-03T15:15:02.300Z,22.0
2017-07-03T15:20:02.488Z,23.7
2017-07-03T15:25:02.933Z,23.2
2017-07-03T15:30:03.224Z,23.2
2017-07-03T15:35:03.218Z,22.3
2017-07-03T15:40:03.150Z,22.1
2017-07-03T15:45:02.524Z,21.8
2017-07-03T15:50:02.594Z,22.0
2017-07-03T15:55:02.401Z,22.0
2017-07-03T16:00:02.876Z,22.3
2017-07-03T16:05:02.525Z,22.7
2017-07-03T16:10:03.212Z,22.5
2017-07-03T16:15:02.490Z,22.7
2017-07-03T16:20:03.214Z,22.6
2017-07-03T16:25:02.828Z,21.7
2017-07-03T16:30:03.016Z,21.7
2017-07-03T16:35:02.516Z,21.8
2017-07-03T16:40:02.777Z,22.3
2017-07-03T16:45:03.257Z,22.7
2017-07-03T16:50:03.197Z,22.7
2017-07-03T16:55:03.089Z,22.7
2017-07-03T17:00:03.053Z,22.0
2017-07-03T17:05:02.576Z,21.8
2017-07-03T17:10:02.557Z,21.6
2017-07-03T17:15:02.696Z,21.5
2017-07-03T17:20:02.812Z,21.3
2017-07-03T17:25:02.700Z,21.2
2017-07-03T17:30:02.996Z,21.5
2017-07-03T17:35:02.567Z,21.7
2017-07-03T17:40:02.447Z,21.5
2017-07-03T17:45:02.545Z,21.5
2017-07-03T17:50:02.569Z,21.2
2017-07-03T17:55:02.958Z,20.8
2017-07-03T18:00:02.457Z,20.7
2017-07-03T18:05:02.790Z,20.7
2017-07-03T18:10:02.698Z,20.6
2017-07-03T18:15:02.460Z,20.6
2017-07-03T18:20:03.174Z,20.3
2017-07-03T18:25:03.095Z,20.3
2017-07-03T18:30:03.067Z,20.3
2017-07-03T18:35:02.988Z,20.3
2017-07-03T18:40:02.510Z,20.2
2017-07-03T18:45:03.059Z,20.2
2017-07-03T18:50:02.479Z,20.2
2017-07-03T18:55:03.149Z,20.1
2017-07-03T19:00:02.465Z,20.0
2017-07-03T19:05:03.065Z,19.7
2017-07-03T19:10:02.579Z,19.7
2017-07-03T19:15:02.745Z,19.7
2017-07-03T19:20:02.929Z,19.5
2017-07-03T19:25:02.466Z,19.5
2017-07-03T19:30:02.394Z,19.5
2017-07-03T19:35:02.512Z,19.3
2017-07-03T19:40:02.788Z,19.3
2017-07-03T19:45:02.690Z,19.3
2017-07-03T19:50:02.524Z,19.1
2017-07-03T19:55:02.529Z,19.0
2017-07-03T20:00:02.497Z,19.0
2017-07-03T20:05:02.335Z,19.0
2017-07-03T20:10:03.223Z,18.8
2017-07-03T20:15:02.427Z,18.7
2017-07-03T20:20:02.432Z,18.7
2017-07-03T20:25:02.548Z,18.7
2017-07-03T20:30:02.925Z,18.6
2017-07-03T20:35:02.710Z,18.6
2017-07-03T20:40:02.998Z,18.5
2017-07-03T20:45:02.569Z,18.2
2017-07-03T20:50:03.007Z,18.2
2017-07-03T20:55:03.212Z,18.1
2017-07-03T21:00:02.357Z,18.1
2017-07-03T21:05:02.369Z,17.8
2017-07-03T21:10:02.625Z,17.8
2017-07-03T21:15:03.120Z,17.8
2017-07-03T21:20:03.107Z,17.8
2017-07-03T21:25:02.791Z,17.8
2017-07-03T21:30:02.440Z,17.7
2017-07-03T21:35:02.677Z,17.7
2017-07-03T21:40:02.320Z,17.5
2017-07-03T21:45:02.493Z,17.3
2017-07-03T21:50:02.437Z,17.2
2017-07-03T21:55:03.242Z,17.1
2017-07-03T22:00:03.144Z,17.0
2017-07-03T22:05:02.430Z,17.0
2017-07-03T22:10:02.830Z,16.7
2017-07-03T22:15:02.374Z,16.6
2017-07-03T22:20:02.802Z,16.3
2017-07-03T22:25:03.084Z,16.3
2017-07-03T22:30:02.355Z,16.3
2017-07-03T22:35:02.598Z,16.3
2017-07-03T22:40:02.941Z,16.6
2017-07-03T22:45:02.338Z,16.6
2017-07-03T22:50:02.717Z,16.6
2017-07-03T22:55:03.229Z,16.3
2017-07-03T23:00:02.711Z,16.6
2017-07-03T23:05:02.310Z,16.6
2017-07-03T23:10:02.814Z,16.6
2017-07-03T23:15:03.155Z,16.7
2017-07-03T23:20:02.467Z,16.7
2017-07-03T23:25:02.748Z,16.7
2017-07-03T23:30:03.125Z,16.7
2017-07-03T23:35:02.463Z,16.7
2017-07-03T23:40:02.847Z,16.7
2017-07-03T23:45:03.167Z,16.6
2017-07-03T23:50:02.531Z,16.7
2017-07-03T23:55:02.827Z,16.7
